createdAt,value
2022-10-06T00:02:26.918Z,11.20
2022-10-06T00:04:56.017Z,11.10
2022-10-06T00:07:26.726Z,11.00
2022-10-06T00:12:50.009Z,11.10
2022-10-06T00:15:26.377Z,11.00
2022-10-06T00:17:56.407Z,11.00
2022-10-06T00:20:26.915Z,11.00
2022-10-06T00:22:58.045Z,11.00
2022-10-06T00:25:35.161Z,10.90
2022-10-06T00:28:03.957Z,10.90
2022-10-06T00:30:32.229Z,10.80
2022-10-06T00:33:03.012Z,10.80
2022-10-06T00:35:33.751Z,10.80
2022-10-06T00:38:01.777Z,10.90
2022-10-06T00:40:30.887Z,10.80
2022-10-06T00:43:06.738Z,10.80
2022-10-06T00:45:47.082Z,10.80
2022-10-06T00:48:26.870Z,10.80
2022-10-06T00:50:59.093Z,10.80
2022-10-06T00:53:31.124Z,10.80
2022-10-06T00:55:59.303Z,10.80
2022-10-06T00:58:27.083Z,10.80
2022-10-06T01:00:57.790Z,10.70
2022-10-06T01:03:37.882Z,10.70
2022-10-06T01:06:06.616Z,10.70
2022-10-06T01:08:37.252Z,10.60
2022-10-06T01:11:13.131Z,10.50
2022-10-06T01:13:44.368Z,10.50
2022-10-06T01:16:27.141Z,10.60
2022-10-06T01:18:58.718Z,10.60
2022-10-06T01:21:41.514Z,10.50
2022-10-06T01:24:10.834Z,10.60
2022-10-06T01:26:45.054Z,10.60
2022-10-06T01:29:13.811Z,10.60
2022-10-06T01:31:44.282Z,10.60
2022-10-06T01:34:12.777Z,10.60
2022-10-06T01:36:42.030Z,10.60
2022-10-06T01:39:09.701Z,10.50
2022-10-06T01:41:40.017Z,10.40
2022-10-06T01:44:09.046Z,10.40
2022-10-06T01:46:37.064Z,10.40
2022-10-06T01:49:06.475Z,10.30
2022-10-06T01:51:36.132Z,10.20
2022-10-06T01:54:04.219Z,10.20
2022-10-06T01:56:34.204Z,10.10
2022-10-06T01:59:06.692Z,10.10
2022-10-06T02:01:38.493Z,10.10
2022-10-06T02:04:06.068Z,10.10
2022-10-06T02:06:37.219Z,10.00
2022-10-06T02:09:07.587Z,10.10
2022-10-06T02:11:36.891Z,10.20
2022-10-06T02:14:07.302Z,10.10
2022-10-06T02:16:36.279Z,10.10
2022-10-06T02:19:04.097Z,10.10
2022-10-06T02:21:33.938Z,10.00
2022-10-06T02:24:06.420Z,10.00
2022-10-06T02:26:38.003Z,9.90
2022-10-06T02:29:07.190Z,10.00
2022-10-06T02:31:37.663Z,10.00
2022-10-06T02:34:07.456Z,9.90
2022-10-06T02:36:37.564Z,9.90
2022-10-06T02:39:07.005Z,9.90
2022-10-06T02:41:37.729Z,9.80
2022-10-06T02:44:08.314Z,9.80
2022-10-06T02:46:46.758Z,9.80
2022-10-06T02:49:17.500Z,9.80
2022-10-06T02:51:46.056Z,9.80
2022-10-06T02:54:22.674Z,9.80
2022-10-06T02:56:53.050Z,9.70
2022-10-06T02:59:22.808Z,9.60
2022-10-06T03:01:55.784Z,9.50
2022-10-06T03:04:27.350Z,9.50
2022-10-06T03:06:57.383Z,9.60
2022-10-06T03:09:34.513Z,9.50
2022-10-06T03:12:04.100Z,9.50
2022-10-06T03:14:38.312Z,9.40
2022-10-06T03:17:10.797Z,9.50
2022-10-06T03:19:49.775Z,9.40
2022-10-06T03:22:18.987Z,9.40
2022-10-06T03:30:18.574Z,9.40
2022-10-06T03:32:49.754Z,9.30
2022-10-06T03:35:20.413Z,9.20
2022-10-06T03:37:49.064Z,9.30
2022-10-06T03:40:19.547Z,9.20
2022-10-06T03:42:47.347Z,9.20
2022-10-06T03:45:18.230Z,9.20
2022-10-06T03:47:49.194Z,9.10
2022-10-06T03:50:17.918Z,9.10
2022-10-06T03:52:54.789Z,9.20
2022-10-06T03:55:23.745Z,9.20
2022-10-06T03:57:56.725Z,9.10
2022-10-06T04:03:07.035Z,9.10
2022-10-06T04:05:37.874Z,9.10
2022-10-06T04:08:08.595Z,9.10
2022-10-06T04:10:40.418Z,9.10
2022-10-06T04:13:08.038Z,9.00
2022-10-06T04:15:38.534Z,9.00
2022-10-06T04:18:08.636Z,9.00
2022-10-06T04:20:38.389Z,9.00
2022-10-06T04:23:07.650Z,8.90
2022-10-06T04:25:37.302Z,8.90
2022-10-06T04:28:08.242Z,8.90
2022-10-06T04:30:38.594Z,9.00
2022-10-06T04:33:07.423Z,8.90
2022-10-06T04:35:38.562Z,9.00
2022-10-06T04:38:07.617Z,9.00
2022-10-06T04:40:38.709Z,9.00
2022-10-06T04:43:08.760Z,9.00
2022-10-06T04:45:38.159Z,9.00
2022-10-06T04:48:10.061Z,9.10
2022-10-06T04:50:38.022Z,9.10
2022-10-06T04:53:13.296Z,9.20
2022-10-06T04:55:41.413Z,9.20
2022-10-06T04:58:10.324Z,9.20
2022-10-06T05:00:38.131Z,9.20
2022-10-06T05:03:10.501Z,9.20
2022-10-06T05:05:38.986Z,9.20
2022-10-06T05:08:08.665Z,9.30
2022-10-06T05:10:38.041Z,9.30
2022-10-06T05:13:09.012Z,9.40
2022-10-06T05:15:38.973Z,9.40
2022-10-06T05:18:09.584Z,9.40
2022-10-06T05:20:40.203Z,9.40
2022-10-06T05:23:10.967Z,9.50
2022-10-06T05:25:54.014Z,9.50
2022-10-06T05:28:27.653Z,9.60
2022-10-06T05:31:09.719Z,9.60
2022-10-06T05:33:40.657Z,9.60
2022-10-06T05:36:12.753Z,9.70
2022-10-06T05:38:42.383Z,9.80
2022-10-06T05:41:30.006Z,9.80
2022-10-06T05:44:00.148Z,9.80
2022-10-06T05:46:32.203Z,9.80
2022-10-06T05:49:10.282Z,9.90
2022-10-06T05:51:43.445Z,9.90
2022-10-06T05:54:39.472Z,10.00
2022-10-06T05:57:10.046Z,10.20
2022-10-06T05:59:39.588Z,10.20
2022-10-06T06:02:09.321Z,10.40
2022-10-06T06:04:46.543Z,10.50
2022-10-06T06:07:14.974Z,10.60
2022-10-06T06:09:46.843Z,10.70
2022-10-06T06:12:16.167Z,10.90
2022-10-06T06:15:29.536Z,11.10
2022-10-06T06:18:12.682Z,11.30
2022-10-06T06:20:45.702Z,11.50
2022-10-06T06:23:16.069Z,11.60
2022-10-06T06:25:46.377Z,11.70
2022-10-06T06:28:16.409Z,11.90
2022-10-06T06:30:45.311Z,12.00
2022-10-06T06:33:15.660Z,12.20
2022-10-06T06:35:45.017Z,12.40
2022-10-06T06:38:12.493Z,12.60
2022-10-06T06:40:41.622Z,12.90
2022-10-06T06:43:13.006Z,13.10
2022-10-06T06:46:08.048Z,13.20
2022-10-06T06:48:58.461Z,13.50
2022-10-06T06:51:30.834Z,13.70
2022-10-06T06:54:03.067Z,13.80
2022-10-06T06:56:35.656Z,14.10
2022-10-06T06:59:16.152Z,14.20
2022-10-06T07:01:51.527Z,14.30
2022-10-06T07:04:24.177Z,14.50
2022-10-06T07:06:57.927Z,14.70
2022-10-06T07:09:34.035Z,14.70
2022-10-06T07:12:12.378Z,14.90
2022-10-06T07:15:31.778Z,15.20
2022-10-06T07:18:24.039Z,15.40
2022-10-06T07:21:17.499Z,15.60
2022-10-06T07:24:09.660Z,15.80
2022-10-06T07:26:39.090Z,16.00
2022-10-06T07:29:08.731Z,16.10
2022-10-06T07:31:42.542Z,16.40
2022-10-06T07:34:11.009Z,16.60
2022-10-06T07:36:39.006Z,16.70
2022-10-06T07:39:11.496Z,17.00
2022-10-06T07:44:26.936Z,17.50
2022-10-06T07:46:57.833Z,17.70
2022-10-06T07:49:50.844Z,17.90
2022-10-06T07:55:06.475Z,18.20
2022-10-06T07:57:48.134Z,18.40
2022-10-06T08:00:18.541Z,18.60
2022-10-06T08:02:48.810Z,18.80
2022-10-06T08:05:20.614Z,19.00
2022-10-06T08:07:58.433Z,19.20
2022-10-06T08:10:26.671Z,19.30
2022-10-06T08:12:56.901Z,19.40
2022-10-06T08:15:27.080Z,19.60
2022-10-06T08:17:58.070Z,19.70
2022-10-06T08:20:30.385Z,19.80
2022-10-06T08:23:01.714Z,20.00
2022-10-06T08:28:17.716Z,20.10
2022-10-06T08:30:49.004Z,20.20
2022-10-06T08:33:21.176Z,20.40
2022-10-06T08:35:51.728Z,20.40
2022-10-06T08:41:42.230Z,20.70
2022-10-06T08:44:34.870Z,20.70
2022-10-06T08:47:26.868Z,21.00
2022-10-06T08:49:57.513Z,21.20
2022-10-06T08:52:50.372Z,21.30
2022-10-06T08:55:43.888Z,21.40
2022-10-06T08:58:50.790Z,21.40
2022-10-06T09:01:28.450Z,21.50
2022-10-06T09:04:10.177Z,21.50
2022-10-06T09:07:24.665Z,21.50
2022-10-06T09:10:31.260Z,21.50
2022-10-06T09:13:11.855Z,21.60
2022-10-06T09:15:53.120Z,21.80
2022-10-06T09:18:49.532Z,21.60
2022-10-06T09:21:32.673Z,21.60
2022-10-06T09:24:37.772Z,21.80
2022-10-06T09:27:37.008Z,21.90
2022-10-06T09:30:09.175Z,22.10
2022-10-06T09:32:42.169Z,22.20
2022-10-06T09:35:21.732Z,22.30
2022-10-06T09:38:09.135Z,22.40
2022-10-06T09:40:55.994Z,22.50
2022-10-06T09:43:34.480Z,22.60
2022-10-06T09:46:24.584Z,22.60
2022-10-06T09:49:18.480Z,22.80
2022-10-06T09:52:19.073Z,22.90
2022-10-06T09:55:15.617Z,23.00
2022-10-06T09:57:56.700Z,23.10
2022-10-06T10:00:50.771Z,23.20
2022-10-06T10:03:20.831Z,23.30
2022-10-06T10:05:52.449Z,23.60
2022-10-06T10:08:30.859Z,23.80
2022-10-06T10:11:43.960Z,23.90
2022-10-06T10:14:22.157Z,24.30
2022-10-06T10:16:53.561Z,24.40
2022-10-06T10:19:28.138Z,24.60
2022-10-06T10:22:00.321Z,24.80
2022-10-06T10:25:12.745Z,25.00
2022-10-06T10:28:21.918Z,25.20
2022-10-06T10:31:14.220Z,25.40
2022-10-06T10:34:12.854Z,25.10
2022-10-06T10:37:24.761Z,25.20
2022-10-06T10:40:27.695Z,25.30
2022-10-06T10:43:17.811Z,25.50
2022-10-06T10:46:26.090Z,25.30
2022-10-06T10:49:26.380Z,25.20
2022-10-06T10:52:20.992Z,24.80
2022-10-06T10:55:34.438Z,24.60
2022-10-06T10:58:34.552Z,24.30
2022-10-06T11:01:51.707Z,24.30
2022-10-06T11:04:24.637Z,24.70
2022-10-06T11:07:29.170Z,25.10
2022-10-06T11:10:04.885Z,24.90
2022-10-06T11:13:42.527Z,25.30
2022-10-06T11:16:53.837Z,25.90
2022-10-06T11:20:06.779Z,26.50
2022-10-06T11:23:00.075Z,27.20
2022-10-06T11:26:12.674Z,27.10
2022-10-06T11:28:54.000Z,26.90
2022-10-06T11:31:57.715Z,26.50
2022-10-06T11:34:27.551Z,26.00
2022-10-06T11:37:32.021Z,26.20
2022-10-06T11:40:39.729Z,26.20
2022-10-06T11:43:31.688Z,26.40
2022-10-06T11:46:44.063Z,26.00
2022-10-06T11:49:32.583Z,25.70
2022-10-06T11:52:14.981Z,25.40
2022-10-06T11:54:49.380Z,25.50
2022-10-06T11:57:30.616Z,25.80
2022-10-06T12:00:18.909Z,26.10
2022-10-06T12:02:50.456Z,25.80
2022-10-06T12:08:42.146Z,25.00
2022-10-06T12:11:45.417Z,24.70
2022-10-06T12:17:05.061Z,24.50
2022-10-06T12:17:58.086Z,24.30
2022-10-06T12:21:02.412Z,24.10
2022-10-06T12:24:20.964Z,24.30
2022-10-06T12:27:10.416Z,24.60
2022-10-06T12:29:48.958Z,25.00
2022-10-06T12:32:32.457Z,24.90
2022-10-06T12:35:37.026Z,24.80
2022-10-06T12:38:28.650Z,24.70
2022-10-06T12:41:00.205Z,24.30
2022-10-06T12:43:34.609Z,24.40
2022-10-06T12:46:09.362Z,24.40
2022-10-06T12:49:05.142Z,24.20
2022-10-06T12:51:59.047Z,24.00
2022-10-06T12:54:46.246Z,23.90
2022-10-06T12:57:24.264Z,24.10
2022-10-06T12:59:56.116Z,24.40
2022-10-06T13:02:28.922Z,24.50
2022-10-06T13:05:02.833Z,24.60
2022-10-06T13:07:33.186Z,24.30
2022-10-06T13:10:23.843Z,24.50
2022-10-06T13:12:58.607Z,24.70
2022-10-06T13:15:44.569Z,25.20
2022-10-06T13:18:19.109Z,25.30
2022-10-06T13:21:14.416Z,25.30
2022-10-06T13:23:45.528Z,25.30
2022-10-06T13:26:28.052Z,25.20
2022-10-06T13:29:02.956Z,25.10
2022-10-06T13:31:35.305Z,24.90
2022-10-06T13:34:34.255Z,24.70
2022-10-06T13:37:02.545Z,24.60
2022-10-06T13:39:32.438Z,24.40
2022-10-06T13:42:33.936Z,24.60
2022-10-06T13:45:07.268Z,24.40
2022-10-06T13:47:39.324Z,24.60
2022-10-06T13:50:20.310Z,24.50
2022-10-06T13:52:53.755Z,24.50
2022-10-06T13:55:29.528Z,24.60
2022-10-06T13:58:09.848Z,24.70
2022-10-06T14:00:55.420Z,24.70
2022-10-06T14:03:27.873Z,24.70
2022-10-06T14:06:09.238Z,24.80
2022-10-06T14:08:40.115Z,25.00
2022-10-06T14:14:03.170Z,25.10
2022-10-06T14:16:32.155Z,25.70
2022-10-06T14:19:09.877Z,25.80
2022-10-06T14:21:45.781Z,25.50
2022-10-06T14:24:31.730Z,25.50
2022-10-06T14:27:06.173Z,28.30
2022-10-06T14:29:46.733Z,30.40
2022-10-06T14:32:17.940Z,30.80
2022-10-06T14:34:49.083Z,31.00
2022-10-06T14:37:19.846Z,31.00
2022-10-06T14:39:53.938Z,30.20
2022-10-06T14:42:27.450Z,28.40
2022-10-06T14:44:56.258Z,27.20
2022-10-06T14:47:35.122Z,26.30
2022-10-06T14:50:06.013Z,25.60
2022-10-06T14:52:34.644Z,25.60
2022-10-06T14:55:14.109Z,25.80
2022-10-06T14:57:42.912Z,25.60
2022-10-06T15:00:14.593Z,25.70
2022-10-06T15:02:46.880Z,25.70
2022-10-06T15:05:15.444Z,24.70
2022-10-06T15:08:06.557Z,24.10
2022-10-06T15:10:45.750Z,23.60
2022-10-06T15:13:16.806Z,23.40
2022-10-06T15:15:45.882Z,23.20
2022-10-06T15:18:15.411Z,22.90
2022-10-06T15:20:47.808Z,22.80
2022-10-06T15:23:17.054Z,22.60
2022-10-06T15:26:16.001Z,22.40
2022-10-06T15:29:03.418Z,22.20
2022-10-06T15:31:58.024Z,22.00
2022-10-06T15:34:29.085Z,21.80
2022-10-06T15:37:00.337Z,21.70
2022-10-06T15:39:31.839Z,21.60
2022-10-06T15:44:42.444Z,21.40
2022-10-06T15:47:13.427Z,21.30
2022-10-06T15:49:44.615Z,21.20
2022-10-06T15:52:14.109Z,21.10
2022-10-06T15:54:46.848Z,21.00
2022-10-06T15:57:21.228Z,20.80
2022-10-06T15:59:51.929Z,20.60
2022-10-06T16:02:25.850Z,20.60
2022-10-06T16:05:15.475Z,20.40
2022-10-06T16:07:45.081Z,20.30
2022-10-06T16:14:48.107Z,20.10
2022-10-06T16:17:20.673Z,19.90
2022-10-06T16:19:49.634Z,19.70
2022-10-06T16:22:24.665Z,19.60
2022-10-06T16:24:56.846Z,19.40
2022-10-06T16:27:28.005Z,19.30
2022-10-06T16:30:00.461Z,19.30
2022-10-06T16:32:32.449Z,19.20
2022-10-06T16:35:03.186Z,19.10
2022-10-06T16:37:37.375Z,19.00
2022-10-06T16:40:09.477Z,18.90
2022-10-06T16:42:39.343Z,18.80
2022-10-06T16:45:17.425Z,18.60
2022-10-06T16:47:47.520Z,18.60
2022-10-06T16:50:20.208Z,18.60
2022-10-06T16:52:48.885Z,18.40
2022-10-06T16:55:19.684Z,18.30
2022-10-06T16:57:53.540Z,18.30
2022-10-06T17:00:22.159Z,18.10
2022-10-06T17:02:50.620Z,18.10
2022-10-06T17:05:18.744Z,18.10
2022-10-06T17:07:54.545Z,18.10
2022-10-06T17:10:26.722Z,18.00
2022-10-06T17:13:00.429Z,17.90
2022-10-06T17:15:33.334Z,17.80
2022-10-06T17:18:01.351Z,17.70
2022-10-06T17:20:32.190Z,17.60
2022-10-06T17:23:01.394Z,17.70
2022-10-06T17:25:31.431Z,17.50
2022-10-06T17:28:26.954Z,17.40
2022-10-06T17:31:00.077Z,17.30
2022-10-06T17:33:44.180Z,17.30
2022-10-06T17:36:24.071Z,17.20
2022-10-06T17:39:21.950Z,17.10
2022-10-06T17:41:52.797Z,17.00
2022-10-06T17:44:24.217Z,17.00
2022-10-06T17:47:00.618Z,17.00
2022-10-06T17:49:34.909Z,17.00
2022-10-06T17:52:03.255Z,16.90
2022-10-06T17:54:32.614Z,16.80
2022-10-06T17:57:00.277Z,16.70
2022-10-06T17:59:33.751Z,16.70
2022-10-06T18:02:03.953Z,16.70
2022-10-06T18:04:35.961Z,16.60
2022-10-06T18:07:04.359Z,16.50
2022-10-06T18:09:38.074Z,16.50
2022-10-06T18:12:10.868Z,16.40
2022-10-06T18:14:41.503Z,16.40
2022-10-06T18:17:10.376Z,16.30
2022-10-06T18:19:41.788Z,16.30
2022-10-06T18:22:10.794Z,16.30
2022-10-06T18:24:42.907Z,16.20
2022-10-06T18:27:15.613Z,16.20
2022-10-06T18:29:44.423Z,16.10
2022-10-06T18:38:10.927Z,16.00
2022-10-06T18:40:42.861Z,15.90
2022-10-06T18:43:15.735Z,15.90
2022-10-06T18:46:02.564Z,15.80
2022-10-06T18:48:51.574Z,15.70
2022-10-06T18:51:21.064Z,15.70
2022-10-06T18:53:52.161Z,15.70
2022-10-06T18:56:24.145Z,15.60
2022-10-06T18:58:55.394Z,15.50
2022-10-06T19:01:27.994Z,15.50
2022-10-06T19:04:05.794Z,15.40
2022-10-06T19:06:35.947Z,15.50
2022-10-06T19:09:07.690Z,15.30
2022-10-06T19:12:00.643Z,15.30
2022-10-06T19:14:35.238Z,15.30
2022-10-06T19:17:09.438Z,15.20
2022-10-06T19:19:40.337Z,15.20
2022-10-06T19:22:11.309Z,15.10
2022-10-06T19:24:45.628Z,15.10
2022-10-06T19:27:25.754Z,15.10
2022-10-06T19:29:57.757Z,15.10
2022-10-06T19:32:33.888Z,15.10
2022-10-06T19:35:10.327Z,15.10
2022-10-06T19:37:45.965Z,15.00
2022-10-06T19:40:17.170Z,15.00
2022-10-06T19:42:47.610Z,14.90
2022-10-06T19:45:26.040Z,14.90
2022-10-06T19:48:00.701Z,14.90
2022-10-06T19:50:41.419Z,14.90
2022-10-06T19:53:13.187Z,14.80
2022-10-06T19:55:45.797Z,14.80
2022-10-06T19:58:16.583Z,14.70
2022-10-06T20:00:45.620Z,14.70
2022-10-06T20:03:16.231Z,14.60
2022-10-06T20:05:49.024Z,14.60
2022-10-06T20:08:16.498Z,14.60
2022-10-06T20:10:54.273Z,14.50
2022-10-06T20:13:24.709Z,14.50
2022-10-06T20:18:52.240Z,14.30
2022-10-06T20:21:25.679Z,14.20
2022-10-06T20:23:59.171Z,14.30
2022-10-06T20:26:34.565Z,14.20
2022-10-06T20:29:09.363Z,14.30
2022-10-06T20:31:42.611Z,14.30
2022-10-06T20:34:22.703Z,14.20
2022-10-06T20:36:55.862Z,14.20
2022-10-06T20:39:48.590Z,14.20
2022-10-06T20:42:20.896Z,14.20
2022-10-06T20:44:51.884Z,14.20
2022-10-06T20:50:07.116Z,14.10
2022-10-06T20:52:38.743Z,14.00
2022-10-06T20:55:08.645Z,13.90
2022-10-06T20:57:46.861Z,13.90
2022-10-06T21:03:02.350Z,14.00
2022-10-06T21:05:44.309Z,13.90
2022-10-06T21:08:16.588Z,13.90
2022-10-06T21:13:35.557Z,13.90
2022-10-06T21:16:07.666Z,13.90
2022-10-06T21:18:40.213Z,13.90
2022-10-06T21:21:09.267Z,13.90
2022-10-06T21:23:40.911Z,13.80
2022-10-06T21:26:11.397Z,13.80
2022-10-06T21:28:40.601Z,13.80
2022-10-06T21:31:16.695Z,13.80
2022-10-06T21:33:46.315Z,13.80
2022-10-06T21:36:20.233Z,13.70
2022-10-06T21:38:51.432Z,13.70
2022-10-06T21:41:44.536Z,13.60
2022-10-06T21:44:17.415Z,13.60
2022-10-06T21:46:56.680Z,13.60
2022-10-06T21:49:25.893Z,13.50
2022-10-06T21:52:06.257Z,13.50
2022-10-06T21:54:36.801Z,13.40
2022-10-06T21:57:05.533Z,13.40
2022-10-06T21:59:33.977Z,13.40
2022-10-06T22:02:03.660Z,13.40
2022-10-06T22:04:41.216Z,13.40
2022-10-06T22:07:14.082Z,13.40
2022-10-06T22:09:44.857Z,13.30
2022-10-06T22:12:14.197Z,13.20
2022-10-06T22:14:46.930Z,13.20
2022-10-06T22:17:17.938Z,13.20
2022-10-06T22:19:47.799Z,13.20
2022-10-06T22:22:18.492Z,13.10
2022-10-06T22:24:46.206Z,13.10
2022-10-06T22:27:16.214Z,13.10
2022-10-06T22:29:49.094Z,13.10
2022-10-06T22:32:19.218Z,13.10
2022-10-06T22:34:49.795Z,13.10
2022-10-06T22:37:22.388Z,12.90
2022-10-06T22:39:53.841Z,12.90
2022-10-06T22:42:22.363Z,12.90
2022-10-06T22:44:53.617Z,13.00
2022-10-06T22:47:25.374Z,13.00
2022-10-06T22:49:55.446Z,13.00
2022-10-06T22:52:26.730Z,13.00
2022-10-06T22:54:58.352Z,12.90
2022-10-06T22:57:30.206Z,13.00
2022-10-06T22:59:58.630Z,12.90
2022-10-06T23:02:26.614Z,12.90
2022-10-06T23:04:59.849Z,12.80
2022-10-06T23:07:29.715Z,12.80
2022-10-06T23:10:01.690Z,12.80
2022-10-06T23:12:32.182Z,12.80
2022-10-06T23:15:03.085Z,12.70
2022-10-06T23:17:42.900Z,12.70
2022-10-06T23:20:17.174Z,12.60
2022-10-06T23:22:48.145Z,12.60
2022-10-06T23:25:27.219Z,12.60
2022-10-06T23:27:57.279Z,12.60
2022-10-06T23:30:26.667Z,12.50
2022-10-06T23:32:55.296Z,12.40
2022-10-06T23:35:24.181Z,12.40
2022-10-06T23:37:51.644Z,12.50
2022-10-06T23:40:19.325Z,12.50
2022-10-06T23:42:52.981Z,12.40
2022-10-06T23:45:20.657Z,12.40
2022-10-06T23:47:48.080Z,12.30
2022-10-06T23:50:17.095Z,12.30
2022-10-06T23:52:46.638Z,12.30
2022-10-06T23:55:18.417Z,12.30
2022-10-06T23:57:47.629Z,12.30
